Dornoch, United Kingdom
Current Conditions -  °F | °C
As of 7:50 PM on Saturday 25 Oct 2014 (Local Time) from EGQK Reporting Station
Few Clouds Few Clouds  
Wind Chill: 52°   Ceiling: Unl
Heat Index: 52°   Visibility: 6mi
Dew Point: 41°   Wind: 18mph
Humidity: 67%   Direction: 210°SSW
Pressure: 29.47"   Gusts: NA
Location:  57.88°N, 4.03°W
Report Text: EGQK 251850Z AUTO 21016KT 9999 FEW050/// 11/05 Q0998
Loading
Personal Weather Stations






























Interactive Weather Map
Tropical Storm Tracking
New forecast layout! Learn more

10-Day Weather Forecast

Advertisements
Track Severe Weather on mobile